Time;durP1;ratioP1;P1;durP2;ratioP2;P2;SDS_P1;SDS_P2;PMS_P1;PMS_P2;Temp;Humidity;BMP_temperature;BMP_pressure;BME280_temperature;BME280_humidity;BME280_pressure;Samples;Min_cycle;Max_cycle;Signal;HPM_P1;HPM_P2
2021/12/06 00:00:00;;;;;;;27.75;12.05;;;;;;;13.63;47.31;100637.25;4430077;32;20077;-69
2021/12/06 00:02:28;;;;;;;24.60;12.60;;;;;;;13.52;47.64;100628.41;4430201;32;20072;-69
2021/12/06 00:04:54;;;;;;;22.98;11.48;;;;;;;13.64;47.45;100638.84;4429906;32;20579;-69
2021/12/06 00:07:23;;;;;;;26.60;12.50;;;;;;;13.28;47.85;100637.81;4431003;32;20148;-69
2021/12/06 00:09:49;;;;;;;26.70;11.38;;;;;;;13.43;47.84;100622.69;4428739;32;20518;-69
2021/12/06 00:12:16;;;;;;;22.17;10.82;;;;;;;13.03;48.42;100609.66;4434995;32;20076;-69
2021/12/06 00:14:42;;;;;;;22.15;10.77;;;;;;;13.19;48.01;100603.84;4425247;32;20073;-69
2021/12/06 00:17:10;;;;;;;18.40;9.65;;;;;;;12.95;48.01;100611.16;4424085;32;20120;-69
2021/12/06 00:19:41;;;;;;;18.15;8.68;;;;;;;13.23;47.99;100605.25;4420747;32;20565;-69
2021/12/06 00:22:10;;;;;;;21.42;9.38;;;;;;;13.02;48.13;100596.78;4421616;32;20458;-69
2021/12/06 00:24:36;;;;;;;17.55;8.93;;;;;;;13.09;47.79;100591.69;4418960;32;20073;-69
2021/12/06 00:27:02;;;;;;;22.05;9.10;;;;;;;12.90;47.72;100601.22;4422499;32;20490;-69
2021/12/06 00:29:28;;;;;;;16.48;8.43;;;;;;;12.85;47.78;100603.81;4418494;32;20034;-69
2021/12/06 00:31:54;;;;;;;22.37;9.35;;;;;;;12.91;47.78;100596.34;4419636;32;20112;-69
2021/12/06 00:34:24;;;;;;;18.85;8.55;;;;;;;12.94;47.50;100599.06;4422237;32;20045;-69
2021/12/06 00:36:54;;;;;;;23.10;8.90;;;;;;;12.90;47.26;100606.87;4422669;32;20446;-69
2021/12/06 00:39:22;;;;;;;16.73;7.90;;;;;;;13.12;47.52;100607.72;4416708;32;20341;-69
2021/12/06 00:41:48;;;;;;;15.15;8.60;;;;;;;13.22;47.53;100612.19;4420680;32;20089;-69
2021/12/06 00:44:14;;;;;;;16.65;7.68;;;;;;;13.22;47.33;100603.69;4420223;32;20056;-69
2021/12/06 00:46:40;;;;;;;17.73;9.48;;;;;;;13.24;47.02;100584.25;4421761;32;20046;-69
2021/12/06 00:49:08;;;;;;;22.77;8.40;;;;;;;13.27;47.10;100574.06;4423075;32;20057;-69
2021/12/06 00:51:34;;;;;;;16.75;8.90;;;;;;;13.42;47.05;100569.44;4418130;32;20056;-69
2021/12/06 00:54:00;;;;;;;20.60;8.00;;;;;;;13.15;47.04;100569.25;4424540;32;20479;-69
2021/12/06 00:56:27;;;;;;;20.83;7.85;;;;;;;13.23;46.90;100564.94;4418226;32;20069;-69
2021/12/06 00:58:53;;;;;;;19.35;7.70;;;;;;;13.26;46.93;100553.47;4420299;32;20082;-69
2021/12/06 01:01:19;;;;;;;15.77;7.95;;;;;;;13.18;46.83;100551.38;4420515;32;20418;-69
2021/12/06 01:03:46;;;;;;;14.13;7.18;;;;;;;13.12;46.84;100553.22;4420124;32;20421;-70
2021/12/06 01:06:12;;;;;;;16.35;7.60;;;;;;;13.07;47.18;100540.47;4419267;32;20073;-70
2021/12/06 01:08:39;;;;;;;13.50;7.62;;;;;;;13.22;46.71;100532.25;4421729;32;20336;-69
2021/12/06 01:11:07;;;;;;;14.82;7.15;;;;;;;13.13;46.79;100532.22;4418922;32;20041;-69
2021/12/06 01:13:35;;;;;;;19.77;7.12;;;;;;;12.96;46.99;100542.09;4421857;32;20078;-69
2021/12/06 01:16:01;;;;;;;12.55;6.55;;;;;;;13.27;46.37;100543.78;4418795;32;20081;-69
2021/12/06 01:18:28;;;;;;;13.52;6.35;;;;;;;13.02;46.39;100541.09;4420481;32;20501;-69
2021/12/06 01:21:07;;;;;;;12.57;6.35;;;;;;;13.11;46.27;100538.34;4419128;32;20025;-69
2021/12/06 01:23:48;;;;;;;10.75;5.68;;;;;;;13.33;45.95;100535.47;4420345;32;20093;-69
2021/12/06 01:26:33;;;;;;;11.30;5.15;;;;;;;13.03;46.11;100534.19;4419516;32;20046;-69
2021/12/06 01:39:45;;;;;;;14.87;5.68;;;;;;;13.50;45.47;100505.75;4448441;32;20068;-70
2021/12/06 01:42:11;;;;;;;11.05;4.70;;;;;;;12.82;46.02;100498.22;4446588;32;20398;-70
2021/12/06 01:44:40;;;;;;;12.75;5.75;;;;;;;12.97;45.54;100507.75;4446384;32;20645;-69
2021/12/06 01:47:10;;;;;;;10.48;5.20;;;;;;;13.17;45.76;100508.25;4448997;32;20061;-70
2021/12/06 01:49:42;;;;;;;7.97;4.47;;;;;;;13.09;46.12;100509.75;4446876;32;20021;-69
2021/12/06 01:52:13;;;;;;;10.55;4.45;;;;;;;13.03;46.14;100508.75;4447852;32;20116;-69
2021/12/06 01:54:39;;;;;;;6.95;3.60;;;;;;;12.99;46.14;100504.47;4449376;32;20029;-69
2021/12/06 01:57:05;;;;;;;11.68;3.97;;;;;;;12.70;46.37;100498.31;4447388;32;20443;-69
2021/12/06 01:59:32;;;;;;;10.10;4.55;;;;;;;12.74;46.32;100493.31;4447119;32;20116;-69
2021/12/06 02:01:58;;;;;;;10.63;4.40;;;;;;;12.66;46.54;100492.78;4447502;32;20094;-70
2021/12/06 02:04:25;;;;;;;9.23;3.87;;;;;;;12.42;46.56;100497.28;4446566;32;20077;-70
2021/12/06 02:06:51;;;;;;;11.07;4.07;;;;;;;12.54;46.80;100481.53;4446696;32;20091;-70
2021/12/06 02:09:18;;;;;;;8.85;4.18;;;;;;;12.45;46.80;100484.31;4444928;32;20037;-70
2021/12/06 02:11:45;;;;;;;8.35;3.92;;;;;;;12.79;46.40;100485.03;4446273;32;20029;-69
2021/12/06 02:19:41;;;;;;;8.30;3.87;;;;;;;13.23;45.61;100522.56;3983662;32;15023774;-69
2021/12/06 02:22:09;;;;;;;8.38;4.15;;;;;;;13.23;45.61;100522.56;4439145;32;20173;-69
2021/12/06 02:24:37;;;;;;;8.18;3.80;;;;;;;12.65;46.62;100519.44;4441380;32;20096;-69
2021/12/06 02:27:05;;;;;;;9.40;4.62;;;;;;;12.42;46.90;100531.13;4439947;32;20093;-69
2021/12/06 02:29:32;;;;;;;9.43;4.57;;;;;;;12.49;46.81;100516.00;4435888;32;20067;-69
2021/12/06 02:31:58;;;;;;;14.75;4.55;;;;;;;12.49;46.79;100501.87;4440529;32;20041;-69
2021/12/06 02:34:24;;;;;;;12.35;4.82;;;;;;;12.29;47.22;100507.03;4439802;32;20138;-69
2021/12/06 02:36:50;;;;;;;10.95;4.75;;;;;;;12.18;47.26;100501.75;4440633;32;20127;-69
2021/12/06 02:39:22;;;;;;;11.15;4.72;;;;;;;12.19;47.32;100497.69;4439502;32;20089;-70
2021/12/06 02:41:51;;;;;;;12.65;5.25;;;;;;;12.21;47.13;100485.97;4436443;32;20100;-69
2021/12/06 02:44:18;;;;;;;12.93;6.60;;;;;;;12.45;46.98;100481.47;4437934;32;20045;-69
2021/12/06 02:46:44;;;;;;;13.15;6.80;;;;;;;12.56;47.02;100479.84;4439595;32;20219;-70
2021/12/06 02:49:10;;;;;;;14.55;6.40;;;;;;;12.45;47.15;100476.59;4442834;32;20448;-70
2021/12/06 02:51:36;;;;;;;13.88;6.18;;;;;;;12.50;47.25;100461.91;4440391;32;20045;-69
2021/12/06 02:54:03;;;;;;;14.57;6.03;;;;;;;12.53;47.12;100454.56;4436559;32;20041;-69
2021/12/06 02:56:32;;;;;;;15.07;6.30;;;;;;;12.60;46.96;100457.09;4438570;32;20103;-69
2021/12/06 02:59:01;;;;;;;14.90;6.03;;;;;;;12.51;47.17;100457.03;4437639;32;20056;-69
2021/12/06 03:01:33;;;;;;;12.98;7.03;;;;;;;12.65;46.96;100465.00;4438816;32;20132;-68
2021/12/06 03:04:01;;;;;;;11.90;6.03;;;;;;;12.71;46.96;100461.13;4440300;32;20072;-68
2021/12/06 03:06:27;;;;;;;15.82;5.78;;;;;;;12.57;47.13;100455.22;4439227;32;20051;-68
2021/12/06 03:09:05;;;;;;;13.18;6.20;;;;;;;12.46;47.36;100443.53;4435787;32;20036;-68
2021/12/06 03:11:36;;;;;;;14.57;6.30;;;;;;;12.76;46.70;100443.59;4440876;32;20073;-68
2021/12/06 03:14:02;;;;;;;14.50;6.60;;;;;;;12.83;46.68;100434.88;4438619;32;20085;-68
2021/12/06 03:16:29;;;;;;;14.85;6.40;;;;;;;12.71;46.31;100427.25;4440902;32;20461;-68
2021/12/06 03:18:56;;;;;;;13.62;5.72;;;;;;;12.80;46.41;100432.97;4439215;32;20464;-68
2021/12/06 03:21:24;;;;;;;14.82;5.82;;;;;;;12.87;46.42;100431.91;4439954;32;20068;-68
2021/12/06 03:23:53;;;;;;;13.43;5.37;;;;;;;12.91;46.21;100436.16;4438440;32;20723;-68
2021/12/06 03:26:19;;;;;;;8.25;4.05;;;;;;;12.80;46.23;100424.50;4439835;32;20067;-68
2021/12/06 03:28:45;;;;;;;9.00;4.15;;;;;;;12.53;46.44;100424.31;4433668;32;20053;-68
2021/12/06 03:31:12;;;;;;;9.90;3.78;;;;;;;12.49;46.35;100425.69;4425834;32;20037;-68
2021/12/06 03:33:42;;;;;;;8.60;3.60;;;;;;;12.38;46.74;100417.59;4429776;32;20439;-68
2021/12/06 03:36:11;;;;;;;9.35;3.33;;;;;;;12.42;46.52;100421.06;4430079;32;20119;-68
2021/12/06 03:38:37;;;;;;;9.27;3.62;;;;;;;12.17;46.80;100406.28;4426759;32;20115;-68
2021/12/06 03:41:06;;;;;;;10.10;3.95;;;;;;;12.24;46.62;100420.94;4428374;32;20308;-68
2021/12/06 03:43:33;;;;;;;9.57;3.58;;;;;;;12.31;46.53;100422.72;4423824;32;20090;-68
2021/12/06 03:45:59;;;;;;;8.32;3.92;;;;;;;12.16;46.81;100407.53;4429365;32;20029;-68
2021/12/06 03:48:25;;;;;;;15.93;3.95;;;;;;;12.12;46.54;100402.00;4414307;32;20528;-68
2021/12/06 03:50:51;;;;;;;10.02;3.55;;;;;;;12.12;46.60;100402.00;4427099;32;20068;-68
2021/12/06 03:53:17;;;;;;;7.90;3.55;;;;;;;12.00;46.50;100388.78;4427809;32;20073;-68
2021/12/06 03:55:44;;;;;;;10.88;3.95;;;;;;;12.01;46.67;100388.31;4425178;32;20026;-68
2021/12/06 03:58:10;;;;;;;14.57;5.60;;;;;;;12.13;47.05;100383.88;4428860;32;20092;-68
2021/12/06 04:00:36;;;;;;;13.88;4.97;;;;;;;11.98;47.34;100380.78;4424097;32;20026;-68
2021/12/06 04:03:02;;;;;;;9.75;5.05;;;;;;;12.09;47.18;100372.69;4427761;32;20074;-68
2021/12/06 04:05:28;;;;;;;12.57;4.97;;;;;;;12.12;47.39;100387.13;4428486;32;20030;-68
2021/12/06 04:07:54;;;;;;;11.77;4.68;;;;;;;12.13;47.10;100380.25;4428991;32;20172;-68
2021/12/06 04:10:20;;;;;;;10.57;4.80;;;;;;;12.18;46.90;100379.66;4428736;32;20587;-68
2021/12/06 04:12:46;;;;;;;10.70;4.97;;;;;;;12.32;46.68;100367.84;4429899;32;20029;-68
2021/12/06 04:15:13;;;;;;;13.60;4.18;;;;;;;12.32;46.62;100359.37;4429094;32;20064;-68
2021/12/06 04:17:40;;;;;;;12.63;4.30;;;;;;;12.44;46.26;100358.53;4432505;32;20080;-68
2021/12/06 04:20:09;;;;;;;7.40;4.10;;;;;;;12.50;46.60;100351.03;4426425;32;20033;-68
2021/12/06 04:22:36;;;;;;;11.35;3.92;;;;;;;12.56;46.73;100337.91;4427120;32;20454;-68
2021/12/06 04:25:04;;;;;;;10.05;3.70;;;;;;;12.45;46.67;100332.66;4423481;32;20080;-68
2021/12/06 04:27:30;;;;;;;9.73;3.58;;;;;;;12.59;46.51;100334.97;4424877;32;21131;-67
2021/12/06 04:29:57;;;;;;;7.72;3.85;;;;;;;12.60;46.19;100333.69;4428754;32;20106;-67
2021/12/06 04:32:23;;;;;;;9.90;3.37;;;;;;;12.46;46.11;100322.19;4426355;32;20069;-67
2021/12/06 04:34:50;;;;;;;13.05;4.53;;;;;;;12.69;45.52;100302.69;4432230;32;20096;-67
2021/12/06 04:37:16;;;;;;;11.00;3.58;;;;;;;12.81;45.82;100292.53;4425309;32;20085;-67
2021/12/06 04:39:42;;;;;;;9.20;4.50;;;;;;;12.89;45.64;100288.97;4423116;32;20079;-67
2021/12/06 04:42:09;;;;;;;10.25;3.75;;;;;;;12.87;45.65;100287.87;4429910;32;20510;-67
2021/12/06 04:44:35;;;;;;;12.02;3.87;;;;;;;12.91;45.77;100289.28;4429540;32;20073;-67
2021/12/06 04:47:01;;;;;;;10.30;3.47;;;;;;;12.97;45.69;100284.63;4432080;32;20066;-68
2021/12/06 04:49:29;;;;;;;9.23;4.18;;;;;;;13.06;45.55;100286.69;4426961;32;20410;-68
2021/12/06 04:51:58;;;;;;;14.38;4.45;;;;;;;13.04;45.84;100270.22;4428935;32;20073;-68
2021/12/06 04:54:29;;;;;;;11.05;4.68;;;;;;;13.31;45.55;100275.16;4427605;32;20567;-69
2021/12/06 04:57:01;;;;;;;19.60;6.03;;;;;;;13.13;45.34;100258.19;4427008;32;20118;-68
2021/12/06 04:59:38;;;;;;;13.23;5.25;;;;;;;13.07;45.66;100257.22;4425618;32;20084;-68
2021/12/06 05:02:11;;;;;;;16.20;5.37;;;;;;;13.40;45.11;100259.00;4431426;32;20092;-68
2021/12/06 05:04:39;;;;;;;11.35;5.60;;;;;;;13.45;45.32;100254.75;4426310;32;20093;-68
2021/12/06 05:07:11;;;;;;;12.57;5.62;;;;;;;13.36;45.48;100249.09;4424219;32;20100;-68
2021/12/06 05:09:40;;;;;;;14.25;6.35;;;;;;;13.40;45.67;100247.69;4427264;32;20032;-68
2021/12/06 05:12:08;;;;;;;15.48;7.47;;;;;;;13.08;46.08;100228.50;4429907;32;20074;-68
2021/12/06 05:14:34;;;;;;;16.83;8.60;;;;;;;12.97;46.64;100230.94;4426548;32;20128;-68
2021/12/06 05:17:00;;;;;;;22.35;8.68;;;;;;;12.33;47.72;100222.72;4429061;32;20111;-68
2021/12/06 05:19:26;;;;;;;20.92;9.50;;;;;;;12.46;47.24;100214.94;4416386;32;20037;-68
2021/12/06 05:21:52;;;;;;;25.55;10.25;;;;;;;12.42;46.78;100209.44;4428122;32;20042;-68
2021/12/06 05:24:19;;;;;;;25.45;10.88;;;;;;;12.50;47.34;100210.72;4430875;32;20085;-68
2021/12/06 05:26:45;;;;;;;25.30;11.18;;;;;;;12.36;47.76;100207.69;4430066;32;20052;-68
2021/12/06 05:29:15;;;;;;;25.42;10.60;;;;;;;12.19;48.19;100200.69;4424148;32;20009;-68
2021/12/06 05:31:41;;;;;;;23.92;11.55;;;;;;;12.52;47.40;100191.28;4430754;32;20103;-68
2021/12/06 05:34:15;;;;;;;28.33;12.23;;;;;;;12.21;48.21;100190.50;4427556;32;20052;-68
2021/12/06 05:36:42;;;;;;;26.67;10.82;;;;;;;11.90;49.14;100182.06;4425802;32;20069;-68
2021/12/06 05:39:09;;;;;;;30.70;12.15;;;;;;;11.97;48.92;100169.72;4422932;32;20121;-68
2021/12/06 05:41:35;;;;;;;26.83;11.12;;;;;;;11.94;48.95;100168.59;4426560;32;20045;-68
2021/12/06 05:44:03;;;;;;;26.05;12.27;;;;;;;12.07;48.67;100163.69;4416760;32;20037;-68
2021/12/06 05:46:29;;;;;;;29.40;12.77;;;;;;;11.97;49.02;100147.19;4412436;32;20037;-68
2021/12/06 05:48:55;;;;;;;29.50;12.00;;;;;;;11.99;48.86;100147.47;4424946;32;20088;-68
2021/12/06 05:51:21;;;;;;;26.45;11.70;;;;;;;11.81;49.01;100139.72;4428434;32;20064;-68
2021/12/06 05:53:47;;;;;;;25.83;11.93;;;;;;;11.82;48.97;100140.50;4427775;32;20525;-68
2021/12/06 05:56:12;;;;;;;25.17;11.70;;;;;;;12.31;48.21;100132.91;4424945;32;20022;-68
2021/12/06 05:58:38;;;;;;;30.52;12.43;;;;;;;12.29;48.00;100124.09;4425205;32;20165;-68
2021/12/06 06:01:05;;;;;;;24.70;11.18;;;;;;;12.44;48.08;100125.09;4428845;32;20078;-68
2021/12/06 06:03:31;;;;;;;25.55;11.43;;;;;;;12.54;48.17;100123.06;4427262;32;20037;-68
2021/12/06 06:05:57;;;;;;;28.85;13.00;;;;;;;12.48;47.93;100113.66;4427378;32;20063;-68
2021/12/06 06:08:23;;;;;;;28.15;12.32;;;;;;;12.67;47.31;100110.41;4423264;32;20658;-68
2021/12/06 06:10:51;;;;;;;30.27;11.85;;;;;;;12.67;47.63;100112.47;4425326;32;20037;-67
2021/12/06 06:13:17;;;;;;;31.25;13.13;;;;;;;13.01;47.02;100098.84;4426853;32;20551;-68
2021/12/06 06:15:44;;;;;;;24.25;11.68;;;;;;;13.19;46.62;100095.25;4428191;32;20026;-68
2021/12/06 06:18:10;;;;;;;26.37;11.40;;;;;;;13.34;46.20;100082.03;4420928;32;20178;-68
2021/12/06 06:20:44;;;;;;;28.90;11.30;;;;;;;13.59;45.74;100078.84;4422608;32;20049;-68
2021/12/06 06:23:10;;;;;;;25.37;10.32;;;;;;;13.91;45.33;100081.75;4428863;32;20713;-68
2021/12/06 06:25:36;;;;;;;28.95;12.10;;;;;;;13.85;45.25;100080.03;4426632;32;20089;-69
2021/12/06 06:28:04;;;;;;;27.62;11.70;;;;;;;13.97;45.04;100099.62;4428080;32;20470;-69
2021/12/06 06:30:30;;;;;;;24.87;10.60;;;;;;;14.05;45.14;100097.22;4423075;32;20100;-69
2021/12/06 06:32:56;;;;;;;21.40;10.63;;;;;;;14.00;45.03;100100.72;4424592;32;20105;-69
2021/12/06 06:35:22;;;;;;;24.02;9.45;;;;;;;13.84;44.80;100093.38;4410971;32;20053;-68
2021/12/06 06:37:47;;;;;;;28.73;10.65;;;;;;;13.57;45.14;100081.37;4429301;32;20076;-68
2021/12/06 06:40:14;;;;;;;28.70;10.57;;;;;;;13.59;45.45;100079.62;4425458;32;20060;-68
2021/12/06 06:42:40;;;;;;;20.15;9.18;;;;;;;13.25;45.87;100094.16;4424685;32;20070;-68
2021/12/06 06:45:08;;;;;;;20.58;9.15;;;;;;;13.18;46.58;100088.81;4428666;32;20045;-68
2021/12/06 06:47:34;;;;;;;23.27;9.77;;;;;;;13.58;46.01;100078.06;4432366;32;20033;-68
2021/12/06 06:50:00;;;;;;;25.48;9.02;;;;;;;13.63;45.75;100080.25;4427437;32;20168;-68
2021/12/06 06:52:25;;;;;;;31.05;10.73;;;;;;;13.55;46.05;100084.69;4424570;32;20070;-68
2021/12/06 06:54:51;;;;;;;26.42;10.20;;;;;;;13.86;45.44;100073.12;4431580;32;20065;-68
2021/12/06 06:57:18;;;;;;;23.62;10.40;;;;;;;13.75;45.32;100065.13;4427923;32;20045;-68
2021/12/06 06:59:45;;;;;;;24.80;9.35;;;;;;;13.93;45.23;100059.41;4423137;32;20559;-68
2021/12/06 07:02:12;;;;;;;26.27;11.35;;;;;;;13.98;44.93;100052.31;4424962;32;20100;-68
2021/12/06 07:04:38;;;;;;;24.63;10.27;;;;;;;14.19;44.58;100042.78;4429875;32;20100;-68
2021/12/06 07:07:04;;;;;;;24.17;10.02;;;;;;;13.80;44.96;100039.03;4430921;32;20045;-68
2021/12/06 07:09:29;;;;;;;27.85;10.48;;;;;;;13.72;45.16;100018.00;4431673;32;20449;-68
2021/12/06 07:11:55;;;;;;;27.00;10.27;;;;;;;13.51;45.25;100009.78;4429146;32;20084;-69
2021/12/06 07:14:21;;;;;;;25.35;10.25;;;;;;;13.76;45.02;100003.72;4427659;32;20400;-68
2021/12/06 07:16:48;;;;;;;23.60;10.40;;;;;;;13.84;44.88;100002.87;4430928;32;20096;-68
2021/12/06 07:19:14;;;;;;;28.62;10.82;;;;;;;14.13;44.34;100007.91;4430525;32;20473;-68
2021/12/06 07:21:40;;;;;;;21.80;9.75;;;;;;;14.12;44.34;100014.06;4429290;32;20175;-68
2021/12/06 07:24:06;;;;;;;24.65;10.68;;;;;;;13.94;44.59;99998.75;4425835;32;20101;-68
2021/12/06 07:26:32;;;;;;;24.17;10.20;;;;;;;14.08;44.64;100003.72;4430140;32;20080;-68
2021/12/06 07:28:59;;;;;;;23.00;10.02;;;;;;;14.03;44.34;100007.19;4424325;32;20232;-68
2021/12/06 07:31:25;;;;;;;22.42;9.23;;;;;;;13.97;44.09;99985.69;4429377;32;20069;-68
2021/12/06 07:33:52;;;;;;;25.08;9.85;;;;;;;14.18;44.14;99967.66;4418368;32;20420;-68
2021/12/06 07:36:19;;;;;;;20.27;8.93;;;;;;;14.04;44.25;99963.50;4428489;32;20368;-68
2021/12/06 07:38:46;;;;;;;20.80;8.50;;;;;;;14.21;44.20;99965.91;4423915;32;20068;-68
2021/12/06 07:41:15;;;;;;;18.33;8.02;;;;;;;13.87;44.57;99955.91;4426840;32;20096;-68
2021/12/06 07:43:41;;;;;;;23.67;8.40;;;;;;;13.76;44.92;99952.81;4426844;32;20073;-68
2021/12/06 07:46:08;;;;;;;21.40;8.07;;;;;;;13.73;44.95;99959.44;4422875;32;20073;-68
2021/12/06 07:48:35;;;;;;;16.58;6.60;;;;;;;13.75;45.02;99943.53;4419021;32;20077;-69
2021/12/06 07:51:01;;;;;;;17.90;7.28;;;;;;;13.70;45.27;99941.38;4408556;32;20062;-71
2021/12/06 07:53:29;;;;;;;16.73;6.28;;;;;;;13.45;45.73;99950.31;4424314;32;20475;-70
2021/12/06 07:55:55;;;;;;;20.45;6.68;;;;;;;13.25;46.11;99957.72;4419576;32;20101;-69
2021/12/06 07:58:21;;;;;;;19.00;7.80;;;;;;;13.00;46.55;99944.00;4414102;32;20699;-69
2021/12/06 08:00:48;;;;;;;20.00;6.37;;;;;;;13.22;46.31;99941.72;4413809;32;20517;-69
2021/12/06 08:03:15;;;;;;;17.98;6.62;;;;;;;12.78;47.17;99930.06;4416499;32;20470;-69
2021/12/06 08:05:45;;;;;;;16.40;6.93;;;;;;;12.96;46.92;99929.22;4415047;32;20038;-69
2021/12/06 08:08:15;;;;;;;15.25;6.15;;;;;;;12.74;47.27;99914.53;4419386;32;20034;-69
2021/12/06 08:10:47;;;;;;;21.77;6.85;;;;;;;12.54;47.71;99931.16;4417509;32;20048;-69
2021/12/06 08:13:16;;;;;;;11.82;6.87;;;;;;;12.68;47.61;99922.84;4407557;32;20141;-69
2021/12/06 08:15:43;;;;;;;23.12;6.32;;;;;;;12.46;47.92;99918.63;4413755;32;21516;-69
2021/12/06 08:18:09;;;;;;;17.27;7.18;;;;;;;12.15;48.19;99924.41;4419472;32;20077;-69
2021/12/06 08:20:37;;;;;;;14.52;6.40;;;;;;;12.46;47.92;99916.63;4421200;32;20089;-68
2021/12/06 08:23:04;;;;;;;19.92;7.05;;;;;;;12.44;47.80;99905.00;4422130;32;20604;-68
2021/12/06 08:25:30;;;;;;;19.77;7.65;;;;;;;12.52;47.80;99903.41;4416657;32;20077;-69
2021/12/06 08:27:56;;;;;;;18.90;7.25;;;;;;;12.47;47.91;99895.59;4414928;32;20488;-69
2021/12/06 08:30:23;;;;;;;23.27;7.93;;;;;;;12.31;47.81;99895.94;4419136;32;20077;-69
2021/12/06 08:32:52;;;;;;;14.80;6.93;;;;;;;12.22;48.54;99889.50;4416283;32;20080;-68
2021/12/06 08:35:17;;;;;;;17.30;7.35;;;;;;;12.31;48.19;99878.19;4415444;32;20095;-68
2021/12/06 08:37:45;;;;;;;16.30;8.15;;;;;;;11.83;48.89;99877.88;4417124;32;20073;-68
2021/12/06 08:40:12;;;;;;;17.42;7.43;;;;;;;12.27;48.82;99863.47;4403757;32;20436;-68
2021/12/06 08:42:38;;;;;;;22.13;8.23;;;;;;;12.28;48.93;99863.00;4416167;32;20099;-68
2021/12/06 08:45:04;;;;;;;16.98;8.35;;;;;;;11.77;49.69;99856.41;4416812;32;20041;-68
2021/12/06 08:47:30;;;;;;;22.52;8.70;;;;;;;11.83;49.73;99851.72;4415259;32;20127;-67
2021/12/06 08:49:56;;;;;;;20.48;8.35;;;;;;;11.75;50.04;99856.06;4416213;32;20025;-68
2021/12/06 08:52:24;;;;;;;23.70;8.30;;;;;;;11.83;50.04;99844.06;4418956;32;20077;-68
2021/12/06 08:54:49;;;;;;;21.77;8.55;;;;;;;11.71;50.59;99836.53;4418002;32;20112;-68
2021/12/06 08:57:16;;;;;;;23.02;8.82;;;;;;;11.60;50.76;99833.34;4419157;32;20120;-68
2021/12/06 08:59:41;;;;;;;21.45;7.62;;;;;;;11.39;51.63;99828.59;4418495;32;20093;-68
2021/12/06 09:02:07;;;;;;;21.12;8.05;;;;;;;11.24;51.97;99830.44;4417475;32;20410;-67
2021/12/06 09:04:38;;;;;;;16.83;6.85;;;;;;;11.60;51.31;99832.56;4417731;32;20168;-68
2021/12/06 09:07:11;;;;;;;24.73;7.65;;;;;;;11.43;51.91;99826.44;4414849;32;20064;-67
2021/12/06 09:09:45;;;;;;;21.25;7.40;;;;;;;11.28;52.29;99817.00;4419314;32;20073;-67
2021/12/06 09:12:14;;;;;;;20.35;7.32;;;;;;;11.50;52.15;99814.84;4420969;32;20080;-69
2021/12/06 09:14:40;;;;;;;25.62;8.93;;;;;;;11.54;51.76;99831.63;4417919;32;20360;-68
2021/12/06 09:17:06;;;;;;;20.88;7.82;;;;;;;11.57;51.87;99808.91;4414820;32;20068;-68
2021/12/06 09:19:33;;;;;;;22.20;7.05;;;;;;;11.82;51.31;99810.69;4415574;32;20604;-68
2021/12/06 09:21:58;;;;;;;21.42;6.82;;;;;;;11.63;51.43;99795.03;4416664;32;20073;-68
2021/12/06 09:24:24;;;;;;;22.00;7.00;;;;;;;11.85;51.03;99790.03;4414949;32;20149;-68
2021/12/06 09:26:50;;;;;;;20.27;6.43;;;;;;;11.73;51.01;99785.31;4417365;32;20085;-67
2021/12/06 09:29:18;;;;;;;19.08;7.25;;;;;;;12.09;50.72;99765.56;4415912;32;20054;-67
2021/12/06 09:31:45;;;;;;;16.30;6.22;;;;;;;12.18;50.33;99756.31;4418038;32;20041;-67
2021/12/06 09:34:11;;;;;;;15.95;5.80;;;;;;;12.22;50.03;99757.72;4419256;32;20089;-67
2021/12/06 09:36:38;;;;;;;13.90;5.80;;;;;;;11.85;50.17;99745.69;4402342;32;20127;-67
2021/12/06 09:39:06;;;;;;;17.50;6.18;;;;;;;12.41;49.35;99739.47;4417090;32;20076;-68
2021/12/06 09:41:33;;;;;;;14.87;5.65;;;;;;;12.26;49.79;99740.59;4415799;32;20606;-67
2021/12/06 09:44:02;;;;;;;15.38;5.57;;;;;;;12.48;49.20;99727.84;4416474;32;20137;-67
2021/12/06 09:46:33;;;;;;;19.45;5.28;;;;;;;12.85;48.55;99732.06;4412102;32;20089;-66
2021/12/06 09:49:01;;;;;;;13.00;5.37;;;;;;;12.41;48.87;99714.09;4414083;32;20344;-66
2021/12/06 09:51:28;;;;;;;15.68;5.78;;;;;;;12.71;48.45;99701.72;4419129;32;20044;-66
2021/12/06 09:53:56;;;;;;;20.15;6.30;;;;;;;12.65;48.34;99683.09;4416769;32;20063;-66
2021/12/06 09:56:27;;;;;;;20.30;5.43;;;;;;;12.70;48.11;99690.91;4415238;32;20100;-66
2021/12/06 09:58:54;;;;;;;11.00;5.25;;;;;;;13.19;47.83;99665.84;4414528;32;20069;-66
2021/12/06 10:01:25;;;;;;;14.87;5.30;;;;;;;12.85;47.82;99675.59;4418549;32;20063;-68
2021/12/06 10:03:53;;;;;;;15.88;5.55;;;;;;;13.04;47.60;99662.94;4418776;32;20144;-68
2021/12/06 10:06:20;;;;;;;15.93;6.22;;;;;;;12.93;47.90;99647.78;4415947;32;20302;-67
2021/12/06 10:08:49;;;;;;;9.43;4.68;;;;;;;13.25;47.41;99639.25;4416559;32;20077;-66
2021/12/06 10:11:18;;;;;;;17.58;5.50;;;;;;;13.13;47.30;99617.69;4417391;32;20158;-66
2021/12/06 10:13:44;;;;;;;10.48;4.72;;;;;;;13.51;46.87;99626.16;4415231;32;20073;-66
2021/12/06 10:16:10;;;;;;;13.85;5.65;;;;;;;13.27;46.96;99627.47;4414260;32;20121;-66
2021/12/06 10:18:37;;;;;;;12.18;4.90;;;;;;;13.36;46.75;99624.56;4419293;32;20053;-67
2021/12/06 10:21:04;;;;;;;13.73;5.03;;;;;;;12.90;47.31;99621.31;4417168;32;20065;-67
2021/12/06 10:23:30;;;;;;;12.35;4.60;;;;;;;13.04;47.45;99614.94;4417292;32;20365;-67
2021/12/06 10:25:56;;;;;;;10.77;5.43;;;;;;;12.79;47.73;99609.75;4417212;32;20065;-67
2021/12/06 10:28:28;;;;;;;12.63;4.87;;;;;;;13.03;47.54;99604.91;4418064;32;20469;-67
2021/12/06 10:30:58;;;;;;;10.88;4.90;;;;;;;13.03;47.53;99604.91;4417329;32;20112;-67
2021/12/06 10:33:28;;;;;;;14.75;4.32;;;;;;;13.10;47.47;99596.06;4401995;32;20541;-68
2021/12/06 10:36:05;;;;;;;12.15;5.35;;;;;;;12.65;48.30;99607.69;4412577;32;20119;-67
2021/12/06 10:38:36;;;;;;;8.77;4.12;;;;;;;12.65;48.87;99613.31;4415793;32;20101;-67
2021/12/06 10:41:08;;;;;;;13.55;5.03;;;;;;;12.37;49.22;99608.31;4421598;32;20152;-68
2021/12/06 10:43:36;;;;;;;11.35;4.43;;;;;;;12.33;49.62;99605.66;4422539;32;20077;-67
2021/12/06 10:46:04;;;;;;;11.20;4.45;;;;;;;12.39;49.46;99594.50;4418035;32;20080;-67
2021/12/06 10:48:32;;;;;;;8.73;3.85;;;;;;;12.33;49.33;99590.78;4419752;32;20473;-66
2021/12/06 10:56:20;;;;;;;7.97;3.25;;;;;;;12.53;48.75;99566.34;3980691;31;15015369;-68
2021/12/06 10:58:50;;;;;;;6.72;3.00;;;;;;;12.52;48.27;99573.25;4433513;32;20381;-67
2021/12/06 11:01:18;;;;;;;6.28;2.60;;;;;;;12.68;48.27;99569.22;4447358;32;20083;-67
2021/12/06 11:03:51;;;;;;;8.15;2.58;;;;;;;12.15;48.83;99583.16;4443906;32;20077;-67
2021/12/06 11:06:21;;;;;;;4.75;2.37;;;;;;;12.33;49.14;99548.47;4441569;32;20471;-67
2021/12/06 11:08:50;;;;;;;6.05;2.33;;;;;;;12.02;49.51;99552.37;4440090;32;20536;-67
2021/12/06 11:11:27;;;;;;;5.95;2.60;;;;;;;11.99;49.70;99552.53;4443541;32;20073;-66
2021/12/06 11:13:59;;;;;;;5.70;2.47;;;;;;;12.26;49.33;99538.31;4443050;32;20292;-66
2021/12/06 11:16:29;;;;;;;4.07;1.95;;;;;;;12.01;50.10;99530.28;4431204;32;20077;-67
2021/12/06 11:27:17;;;;;;;6.03;1.55;;;;;;;12.24;49.66;99473.13;3970269;32;15025852;-68
2021/12/06 11:37:43;;;;;;;1.73;0.90;;;;;;;11.40;51.26;99500.59;3976062;32;15026013;-68
2021/12/06 11:48:25;;;;;;;2.60;0.70;;;;;;;10.87;51.66;99474.13;3982116;31;15015040;-69
2021/12/06 11:50:58;;;;;;;2.08;0.93;;;;;;;10.94;51.73;99484.28;4424738;32;20080;-69
2021/12/06 11:53:29;;;;;;;2.50;1.20;;;;;;;10.82;51.84;99479.59;4427102;32;20053;-69
2021/12/06 11:55:58;;;;;;;1.35;0.98;;;;;;;10.79;52.11;99477.72;4426656;32;20638;-69
2021/12/06 11:58:28;;;;;;;1.00;0.60;;;;;;;10.68;52.70;99483.81;4423457;32;20102;-69
2021/12/06 12:01:12;;;;;;;1.98;0.80;;;;;;;10.53;52.96;99485.72;4421387;32;20081;-69
2021/12/06 12:03:41;;;;;;;1.77;1.20;;;;;;;11.05;51.68;99476.13;4425855;32;20069;-69
2021/12/06 12:06:38;;;;;;;3.83;1.33;;;;;;;10.78;52.44;99471.31;4422318;32;20468;-70